Time;durP1;ratioP1;P1;durP2;ratioP2;P2;SDS_P1;SDS_P2;PMS_P1;PMS_P2;Temp;Humidity;BMP_temperature;BMP_pressure;BME280_temperature;BME280_humidity;BME280_pressure;Samples;Min_cycle;Max_cycle;Signal;HPM_P1;HPM_P2
2023/06/04 00:01:39;;;;;;;2.60;1.62;;;;;;;9.35;59.03;101320.11;1770969;79;21398;-51
2023/06/04 00:04:44;;;;;;;5.12;1.60;;;;;;;9.33;59.06;101320.75;1771035;81;21170;-52
2023/06/04 00:07:51;;;;;;;2.50;1.42;;;;;;;9.30;59.15;101327.39;1771105;79;21397;-49
2023/06/04 00:10:58;;;;;;;3.75;1.45;;;;;;;9.30;59.28;101325.14;1770909;80;21221;-50
2023/06/04 00:14:05;;;;;;;3.95;1.55;;;;;;;9.28;59.32;101329.39;1770855;81;21196;-50
2023/06/04 00:17:12;;;;;;;4.25;1.35;;;;;;;9.25;59.30;101330.17;1771048;81;21347;-50
2023/06/04 00:20:19;;;;;;;4.55;1.60;;;;;;;9.22;59.37;101330.47;1764420;81;21363;-50
2023/06/04 00:23:24;;;;;;;3.30;1.50;;;;;;;9.19;59.39;101327.53;1771231;80;21236;-50
2023/06/04 00:26:32;;;;;;;3.62;1.70;;;;;;;9.13;59.33;101324.86;1771030;80;21205;-51
2023/06/04 00:29:38;;;;;;;3.90;1.67;;;;;;;9.10;59.39;101326.52;1771121;81;21189;-50
2023/06/04 00:32:42;;;;;;;6.75;1.50;;;;;;;9.07;59.50;101327.30;1770892;81;21482;-51
2023/06/04 00:35:49;;;;;;;3.67;1.60;;;;;;;9.06;59.67;101331.92;1770993;80;21824;-51
2023/06/04 00:38:54;;;;;;;3.20;1.92;;;;;;;9.05;59.77;101327.97;1764067;81;21859;-50
2023/06/04 00:42:00;;;;;;;2.27;1.47;;;;;;;9.04;59.86;101327.59;1771826;80;21257;-50
2023/06/04 00:45:09;;;;;;;4.08;1.90;;;;;;;9.01;59.85;101328.75;1771260;80;21709;-50
2023/06/04 00:48:14;;;;;;;2.80;1.70;;;;;;;9.01;59.94;101336.94;1771115;80;21403;-50
2023/06/04 00:51:21;;;;;;;6.65;1.98;;;;;;;8.99;59.95;101327.18;1768658;80;21205;-51
2023/06/04 00:54:28;;;;;;;3.67;1.55;;;;;;;8.95;59.98;101332.55;1771169;81;21362;-51
2023/06/04 00:57:35;;;;;;;3.52;1.90;;;;;;;8.91;60.01;101331.96;1771000;81;21224;-49
2023/06/04 01:00:41;;;;;;;4.83;1.70;;;;;;;8.88;60.03;101337.71;1770991;80;21411;-50
2023/06/04 01:03:47;;;;;;;4.22;1.70;;;;;;;8.87;60.12;101332.39;1771239;80;21451;-49
2023/06/04 01:07:00;;;;;;;8.18;1.90;;;;;;;8.83;60.15;101337.79;1771188;80;21256;-49
2023/06/04 01:10:08;;;;;;;3.58;1.70;;;;;;;8.79;60.23;101331.74;1771216;81;21844;-50
2023/06/04 01:13:15;;;;;;;3.45;1.60;;;;;;;8.76;60.31;101339.34;1771083;81;21205;-50
2023/06/04 01:16:20;;;;;;;5.90;1.80;;;;;;;8.71;60.34;101342.50;1771052;80;21351;-49
2023/06/04 01:19:42;;;;;;;3.05;1.70;;;;;;;8.67;60.38;101348.39;1771080;80;21208;-50
2023/06/04 01:23:04;;;;;;;7.60;2.12;;;;;;;8.63;60.40;101353.75;1768524;80;21402;-50
2023/06/04 01:26:10;;;;;;;5.35;2.00;;;;;;;8.57;60.43;101355.67;1763846;81;21312;-50
2023/06/04 01:29:19;;;;;;;7.47;2.27;;;;;;;8.52;60.46;101364.29;1764267;81;21322;-50
2023/06/04 01:32:26;;;;;;;4.65;2.20;;;;;;;8.47;60.44;101367.05;1771152;81;21240;-51
2023/06/04 01:35:34;;;;;;;6.62;2.10;;;;;;;8.42;60.49;101362.54;1770861;81;21343;-51
2023/06/04 01:38:40;;;;;;;4.80;1.98;;;;;;;8.41;60.75;101357.58;1771176;80;21351;-51
2023/06/04 01:41:46;;;;;;;6.28;1.77;;;;;;;8.41;60.83;101355.34;1771436;80;21331;-51
2023/06/04 01:44:58;;;;;;;3.77;1.90;;;;;;;8.39;60.95;101347.29;1764375;81;21817;-50
2023/06/04 01:48:04;;;;;;;6.12;2.17;;;;;;;8.41;61.12;101347.16;1771068;80;21358;-50
2023/06/04 01:51:09;;;;;;;6.33;2.33;;;;;;;8.42;61.28;101345.64;1761135;80;21351;-50
2023/06/04 01:54:16;;;;;;;4.62;1.90;;;;;;;8.44;61.34;101349.59;1770942;80;21197;-52
2023/06/04 01:57:25;;;;;;;4.85;1.90;;;;;;;8.46;61.47;101345.75;1771123;80;21177;-50
2023/06/04 02:00:31;;;;;;;3.62;1.40;;;;;;;8.48;61.52;101352.43;1771986;80;21347;-50
2023/06/04 02:03:40;;;;;;;8.33;2.17;;;;;;;8.51;61.58;101361.70;1771368;80;21382;-50
2023/06/04 02:06:44;;;;;;;2.70;1.82;;;;;;;8.53;61.65;101366.53;1764310;81;21324;-50
2023/06/04 02:09:51;;;;;;;4.35;1.90;;;;;;;8.56;61.75;101370.34;1771038;81;21375;-50
2023/06/04 02:13:07;;;;;;;6.10;2.15;;;;;;;8.59;61.81;101381.81;1770818;80;21367;-51
2023/06/04 02:16:14;;;;;;;10.53;2.10;;;;;;;8.57;61.67;101379.75;1771117;79;21740;-50
2023/06/04 02:19:21;;;;;;;5.45;2.20;;;;;;;8.59;61.70;101381.81;1771150;80;21351;-50
2023/06/04 02:22:26;;;;;;;5.35;1.98;;;;;;;8.59;61.68;101385.06;1771188;79;21220;-51
2023/06/04 02:25:32;;;;;;;5.25;1.80;;;;;;;8.58;61.56;101384.69;1771250;80;21356;-51
2023/06/04 02:28:39;;;;;;;6.45;2.12;;;;;;;8.60;61.74;101389.51;1771604;80;21217;-52
2023/06/04 02:31:46;;;;;;;4.70;1.80;;;;;;;8.62;61.89;101387.03;1771056;81;21335;-52
2023/06/04 02:34:55;;;;;;;5.55;2.30;;;;;;;8.68;61.95;101396.51;1771120;81;21887;-50
2023/06/04 02:38:01;;;;;;;4.08;2.25;;;;;;;8.70;61.91;101398.61;1771033;80;21327;-50
2023/06/04 02:41:07;;;;;;;4.95;2.33;;;;;;;8.75;62.00;101403.16;1771083;80;21177;-49
2023/06/04 02:44:15;;;;;;;7.95;2.10;;;;;;;8.83;62.12;101413.72;1771607;80;21775;-50
2023/06/04 02:47:23;;;;;;;3.87;2.05;;;;;;;8.90;62.20;101418.12;1771302;80;21208;-50
2023/06/04 02:50:30;;;;;;;6.12;2.05;;;;;;;8.99;62.26;101415.94;1771139;80;21201;-51
2023/06/04 02:53:37;;;;;;;3.87;2.15;;;;;;;9.05;62.21;101419.46;1771100;80;21721;-51
2023/06/04 02:56:44;;;;;;;3.67;2.00;;;;;;;9.11;62.19;101421.62;1771429;80;21224;-51
2023/06/04 02:59:51;;;;;;;5.50;1.90;;;;;;;9.19;62.28;101427.73;1771080;80;21297;-51
2023/06/04 03:03:01;;;;;;;5.20;2.12;;;;;;;9.28;62.41;101430.48;1771561;79;21213;-52
2023/06/04 03:06:04;;;;;;;8.03;2.10;;;;;;;9.40;62.59;101434.83;1771078;81;21192;-50
2023/06/04 03:09:11;;;;;;;6.55;2.10;;;;;;;9.51;62.58;101440.16;1771081;79;21351;-51
2023/06/04 03:12:18;;;;;;;2.95;2.10;;;;;;;9.61;62.66;101445.10;1771114;81;21188;-51
2023/06/04 03:15:24;;;;;;;8.50;2.05;;;;;;;9.74;62.71;101454.37;1771196;81;21244;-52
2023/06/04 03:18:32;;;;;;;3.95;2.02;;;;;;;9.85;62.72;101455.11;1770988;79;21365;-50
2023/06/04 03:21:39;;;;;;;4.50;2.10;;;;;;;9.95;62.71;101466.03;1770982;80;21364;-50
2023/06/04 03:24:47;;;;;;;6.90;2.45;;;;;;;10.06;62.73;101465.38;1771182;80;21663;-50
2023/06/04 03:27:53;;;;;;;8.15;2.12;;;;;;;10.18;62.77;101466.97;1771231;81;21358;-50
2023/06/04 03:31:00;;;;;;;3.85;2.20;;;;;;;10.28;62.76;101469.19;1771328;80;21328;-50
2023/06/04 03:34:07;;;;;;;4.62;2.37;;;;;;;10.39;62.76;101480.46;1771017;81;21205;-50
2023/06/04 03:37:15;;;;;;;5.30;2.33;;;;;;;10.47;62.75;101482.83;1771504;80;21302;-51
2023/06/04 03:40:21;;;;;;;7.35;2.47;;;;;;;10.56;62.75;101491.51;1771076;79;21287;-52
2023/06/04 03:43:29;;;;;;;4.78;2.42;;;;;;;10.65;62.80;101482.05;1770963;81;21331;-50
2023/06/04 03:46:35;;;;;;;8.83;2.75;;;;;;;10.75;62.85;101482.88;1771121;81;21860;-51
2023/06/04 03:49:42;;;;;;;4.62;2.27;;;;;;;10.85;62.79;101485.05;1771621;80;21212;-52
2023/06/04 03:52:49;;;;;;;5.15;1.95;;;;;;;10.92;62.74;101488.92;1769737;80;21851;-52
2023/06/04 03:55:58;;;;;;;5.15;2.10;;;;;;;10.97;62.68;101479.75;1771271;80;21281;-53
2023/06/04 03:59:05;;;;;;;7.97;2.70;;;;;;;11.00;62.61;101476.70;1770799;81;21205;-53
2023/06/04 04:02:12;;;;;;;4.92;2.10;;;;;;;11.09;62.64;101480.77;1771302;80;21316;-53
2023/06/04 04:05:20;;;;;;;5.37;2.37;;;;;;;11.15;62.58;101481.52;1771153;80;21196;-53
2023/06/04 04:08:30;;;;;;;4.45;1.87;;;;;;;11.19;62.53;101482.08;1771366;80;21877;-51
2023/06/04 04:11:35;;;;;;;4.10;1.90;;;;;;;11.24;62.58;101473.73;1771253;80;21858;-52
2023/06/04 04:14:41;;;;;;;3.77;2.02;;;;;;;11.34;62.71;101472.30;1771514;80;21217;-51
2023/06/04 04:17:48;;;;;;;3.95;1.80;;;;;;;11.46;62.74;101480.69;1771240;80;21891;-50
2023/06/04 04:20:56;;;;;;;4.92;1.80;;;;;;;11.55;62.69;101481.12;1771550;80;21310;-52
2023/06/04 04:24:04;;;;;;;4.08;2.00;;;;;;;11.64;62.76;101481.08;1771106;80;21189;-51
2023/06/04 04:27:10;;;;;;;3.60;1.60;;;;;;;11.74;62.71;101481.00;1771123;81;21240;-52
2023/06/04 04:30:17;;;;;;;5.20;1.70;;;;;;;11.83;62.68;101474.56;1763746;81;21370;-52
2023/06/04 04:33:24;;;;;;;6.80;1.92;;;;;;;11.91;62.71;101470.53;1783729;80;21359;-52
2023/06/04 04:36:32;;;;;;;4.70;2.05;;;;;;;12.01;62.72;101473.56;1771031;81;21382;-52
2023/06/04 04:39:40;;;;;;;6.45;1.90;;;;;;;12.12;62.71;101465.58;1770896;81;21204;-53
2023/06/04 04:42:48;;;;;;;5.35;2.08;;;;;;;12.21;62.64;101465.98;1770979;80;21181;-51
2023/06/04 04:45:53;;;;;;;4.28;1.52;;;;;;;12.31;62.66;101468.13;1771400;80;21883;-52
2023/06/04 04:48:59;;;;;;;9.03;2.30;;;;;;;12.44;62.74;101473.19;1771078;80;21315;-51
2023/06/04 04:52:06;;;;;;;8.45;1.90;;;;;;;12.60;62.79;101482.91;1771355;80;21258;-51
2023/06/04 04:55:14;;;;;;;3.05;1.52;;;;;;;12.73;62.73;101477.31;1755687;79;21343;-51
2023/06/04 04:58:20;;;;;;;3.83;1.22;;;;;;;12.86;62.71;101473.61;1770329;81;21736;-52
2023/06/04 05:01:27;;;;;;;3.15;1.10;;;;;;;13.01;62.71;101473.39;1768224;81;21753;-53
2023/06/04 05:04:34;;;;;;;3.83;1.30;;;;;;;13.15;62.60;101476.02;1770749;80;21371;-52
2023/06/04 05:07:42;;;;;;;5.05;0.98;;;;;;;13.26;62.41;101479.33;1779835;79;21205;-51
2023/06/04 05:10:50;;;;;;;4.35;1.22;;;;;;;13.38;62.25;101473.02;1781976;79;21454;-51
2023/06/04 05:13:58;;;;;;;5.08;1.52;;;;;;;13.44;62.07;101465.47;1801639;78;21176;-53
2023/06/04 05:17:06;;;;;;;5.15;1.20;;;;;;;13.52;62.02;101470.45;1801683;78;21338;-53
2023/06/04 05:20:13;;;;;;;2.72;1.17;;;;;;;13.65;61.98;101477.37;1801762;78;21223;-52
2023/06/04 05:23:19;;;;;;;1.77;1.10;;;;;;;13.72;61.75;101474.28;1800853;79;21203;-53
2023/06/04 05:26:27;;;;;;;5.50;1.30;;;;;;;13.80;61.71;101480.67;1800714;79;21164;-53
2023/06/04 05:29:36;;;;;;;3.05;1.05;;;;;;;13.88;61.58;101481.19;1801108;78;21246;-50
2023/06/04 05:32:42;;;;;;;1.00;0.82;;;;;;;13.99;61.52;101483.60;1801100;79;21172;-51
2023/06/04 05:35:49;;;;;;;1.27;0.90;;;;;;;14.10;61.35;101486.02;1784579;79;21662;-53
2023/06/04 05:38:57;;;;;;;3.85;0.90;;;;;;;14.16;61.10;101486.73;1739783;82;21358;-53
2023/06/04 05:42:06;;;;;;;4.97;1.00;;;;;;;14.21;60.86;101489.30;1740007;82;21879;-52
2023/06/04 05:45:13;;;;;;;3.05;0.80;;;;;;;14.25;60.68;101496.23;1739789;82;21354;-52
2023/06/04 05:48:18;;;;;;;1.47;0.70;;;;;;;14.30;60.47;101487.45;1740123;82;21410;-51
2023/06/04 05:51:24;;;;;;;1.62;0.78;;;;;;;14.35;60.37;101487.80;1740169;82;21367;-49
2023/06/04 05:54:30;;;;;;;2.25;1.07;;;;;;;14.42;60.16;101490.17;1784291;79;21192;-53
2023/06/04 05:57:36;;;;;;;2.72;1.12;;;;;;;14.49;59.99;101493.98;1769245;79;21345;-52
2023/06/04 06:00:42;;;;;;;2.12;0.93;;;;;;;14.53;59.83;101489.31;1772834;80;21903;-50
2023/06/04 06:03:48;;;;;;;2.05;1.15;;;;;;;14.56;59.64;101491.72;1772599;80;21367;-52
2023/06/04 06:06:56;;;;;;;3.40;0.90;;;;;;;14.62;59.47;101492.89;1771222;80;21340;-53
2023/06/04 06:10:03;;;;;;;2.92;1.52;;;;;;;14.65;59.21;101503.60;1772086;80;21347;-52
2023/06/04 06:13:08;;;;;;;2.10;0.80;;;;;;;14.69;59.13;101504.95;1772444;80;21378;-52
2023/06/04 06:16:18;;;;;;;1.00;0.70;;;;;;;14.77;59.06;101495.30;1772028;80;21347;-53
2023/06/04 06:19:24;;;;;;;3.22;1.05;;;;;;;14.85;58.90;101498.91;1772128;80;21390;-52
2023/06/04 06:22:31;;;;;;;2.95;1.07;;;;;;;14.90;58.70;101492.31;1772106;80;21920;-53
2023/06/04 06:25:40;;;;;;;3.10;1.15;;;;;;;14.96;58.51;101499.03;1772666;80;21346;-52
2023/06/04 06:28:48;;;;;;;3.10;1.10;;;;;;;15.03;58.32;101492.30;1782135;79;21989;-53
2023/06/04 06:31:56;;;;;;;2.17;0.88;;;;;;;15.09;58.09;101495.71;1772364;80;21347;-54
2023/06/04 06:35:03;;;;;;;5.53;0.80;;;;;;;15.12;57.87;101496.22;1772756;80;21332;-54
2023/06/04 06:38:09;;;;;;;1.85;0.60;;;;;;;15.14;57.68;101495.53;1762825;81;21930;-52
2023/06/04 06:41:17;;;;;;;2.25;0.90;;;;;;;15.23;57.62;101492.20;1772918;80;21374;-53
2023/06/04 06:44:23;;;;;;;2.60;0.68;;;;;;;15.31;57.34;101490.80;1772719;80;21402;-53
2023/06/04 06:47:30;;;;;;;2.22;1.10;;;;;;;15.36;57.17;101490.61;1772436;80;21355;-53
2023/06/04 06:50:29;;;;;;;1.92;0.98;;;;;;;15.43;56.98;101493.00;1772210;80;21402;-51
2023/06/04 06:53:25;;;;;;;2.02;1.05;;;;;;;15.48;56.77;101493.84;1772406;80;21327;-53
2023/06/04 06:56:22;;;;;;;5.75;1.92;;;;;;;15.53;56.53;101482.61;1770588;80;21390;-55
2023/06/04 06:59:27;;;;;;;3.35;0.82;;;;;;;15.61;56.35;101482.56;1767263;80;21213;-55
2023/06/04 07:02:36;;;;;;;3.35;0.75;;;;;;;15.65;56.10;101478.39;1765630;81;21712;-53
2023/06/04 07:05:45;;;;;;;2.85;0.57;;;;;;;15.71;55.95;101488.73;1765932;80;21689;-52
2023/06/04 07:08:54;;;;;;;2.33;0.80;;;;;;;15.79;55.74;101483.12;1765991;81;21256;-53
2023/06/04 07:12:01;;;;;;;2.50;0.90;;;;;;;15.83;55.46;101485.00;1765709;81;21176;-53
2023/06/04 07:15:06;;;;;;;0.65;0.57;;;;;;;15.85;55.21;101482.42;1765388;81;21176;-51
2023/06/04 07:18:13;;;;;;;1.65;0.62;;;;;;;15.89;54.95;101485.13;1765751;81;21177;-52
2023/06/04 07:21:23;;;;;;;1.65;0.65;;;;;;;15.92;54.66;101478.41;1765223;81;21196;-53
2023/06/04 07:24:31;;;;;;;3.65;0.65;;;;;;;15.98;54.51;101477.12;1765232;81;21259;-54
2023/06/04 07:27:37;;;;;;;2.17;0.98;;;;;;;16.09;54.34;101486.89;1736400;80;21406;-53
2023/06/04 07:30:45;;;;;;;3.67;0.88;;;;;;;16.17;54.15;101473.02;1743989;80;21848;-53
2023/06/04 07:33:53;;;;;;;4.35;0.70;;;;;;;16.27;53.97;101470.33;1770786;80;21732;-55
2023/06/04 07:36:58;;;;;;;0.60;0.50;;;;;;;16.31;53.55;101480.48;1770262;80;21272;-52
2023/06/04 07:40:04;;;;;;;1.27;0.88;;;;;;;16.31;53.26;101473.58;1770300;81;21200;-54
2023/06/04 07:43:10;;;;;;;2.00;1.00;;;;;;;16.32;53.04;101476.16;1769925;80;21249;-54
2023/06/04 07:46:18;;;;;;;1.98;0.70;;;;;;;16.37;52.87;101480.61;1753301;80;21347;-56
2023/06/04 07:49:26;;;;;;;0.93;0.72;;;;;;;16.43;52.69;101469.31;1740407;82;21390;-53
2023/06/04 07:52:32;;;;;;;4.15;0.90;;;;;;;16.53;52.53;101461.66;1739290;82;21938;-53
2023/06/04 07:55:37;;;;;;;3.45;0.80;;;;;;;16.65;52.36;101460.13;1739632;82;21343;-53
2023/06/04 07:58:45;;;;;;;1.70;0.70;;;;;;;16.75;52.12;101472.30;1738685;81;21892;-53
2023/06/04 08:01:51;;;;;;;1.07;0.60;;;;;;;16.85;51.94;101463.20;1742451;82;21363;-54
2023/06/04 08:04:59;;;;;;;4.40;0.88;;;;;;;16.93;51.65;101463.98;1762224;80;21350;-54
2023/06/04 08:08:06;;;;;;;2.60;0.65;;;;;;;17.00;51.38;101464.92;1764935;81;21418;-51
2023/06/04 08:11:14;;;;;;;2.22;0.78;;;;;;;17.04;51.15;101457.97;1755319;79;21767;-53
2023/06/04 08:14:22;;;;;;;1.72;0.70;;;;;;;17.14;51.05;101461.28;1760325;79;21429;-56
2023/06/04 08:17:27;;;;;;;1.50;0.50;;;;;;;17.23;50.81;101450.47;1770233;80;21566;-56
2023/06/04 08:20:34;;;;;;;3.33;0.68;;;;;;;17.29;50.48;101449.69;1741143;82;21382;-56
2023/06/04 08:23:44;;;;;;;1.17;0.70;;;;;;;17.32;50.18;101462.27;1756805;79;21462;-56
2023/06/04 08:26:52;;;;;;;2.70;0.50;;;;;;;17.41;50.03;101448.67;1740429;82;21971;-56
2023/06/04 08:29:58;;;;;;;1.00;0.50;;;;;;;17.47;49.73;101452.08;1741106;82;21374;-56
2023/06/04 08:33:02;;;;;;;2.35;0.72;;;;;;;17.59;49.62;101456.04;1740798;82;21366;-56
2023/06/04 08:36:09;;;;;;;0.90;0.60;;;;;;;17.69;49.37;101457.98;1755466;81;21706;-56
2023/06/04 08:39:15;;;;;;;1.47;0.53;;;;;;;17.77;49.13;101452.31;1771549;80;21351;-55
2023/06/04 08:42:36;;;;;;;2.62;0.60;;;;;;;17.81;48.90;101460.55;1767892;80;21390;-55
2023/06/04 08:45:44;;;;;;;1.67;1.00;;;;;;;17.81;48.65;101453.11;1746058;80;21852;-56
2023/06/04 08:48:51;;;;;;;2.27;1.30;;;;;;;17.86;48.45;101452.00;1764654;81;21359;-56
2023/06/04 08:51:58;;;;;;;2.25;0.93;;;;;;;17.96;48.26;101451.67;1763821;81;21382;-56
2023/06/04 08:55:04;;;;;;;1.47;0.90;;;;;;;18.01;48.03;101440.86;1757989;80;21338;-55
2023/06/04 08:58:11;;;;;;;1.75;0.42;;;;;;;18.11;47.87;101441.36;1757551;80;21208;-55
2023/06/04 09:01:16;;;;;;;4.65;0.95;;;;;;;18.23;47.65;101433.37;1734371;82;21331;-56
2023/06/04 09:04:22;;;;;;;3.92;0.90;;;;;;;18.27;47.35;101437.44;1736749;80;21370;-57
2023/06/04 09:07:30;;;;;;;1.00;0.60;;;;;;;18.33;47.16;101430.57;1781054;80;21918;-57
2023/06/04 09:10:39;;;;;;;1.22;0.60;;;;;;;18.43;47.02;101432.51;1761618;80;21311;-55
2023/06/04 09:13:46;;;;;;;1.15;0.55;;;;;;;18.52;46.67;101434.62;1745063;81;21358;-59
2023/06/04 09:16:58;;;;;;;1.05;0.60;;;;;;;18.58;46.43;101428.25;1745394;81;21339;-58
2023/06/04 09:20:08;;;;;;;2.47;0.60;;;;;;;18.59;46.10;101421.12;1760302;81;21323;-56
2023/06/04 09:23:22;;;;;;;2.02;0.72;;;;;;;18.68;45.90;101421.83;1761053;81;21927;-56
2023/06/04 09:26:28;;;;;;;1.05;0.75;;;;;;;18.78;45.78;101425.07;1733356;81;21346;-57
2023/06/04 09:29:36;;;;;;;1.37;0.70;;;;;;;18.87;45.49;101423.31;1759275;81;21351;-56
2023/06/04 09:32:42;;;;;;;1.30;0.70;;;;;;;18.84;45.10;101418.18;1724642;83;21347;-57
2023/06/04 09:35:48;;;;;;;1.82;0.78;;;;;;;18.83;44.89;101420.64;1675870;85;21236;-56
2023/06/04 09:38:55;;;;;;;2.15;1.05;;;;;;;18.94;44.79;101412.26;1731083;83;21263;-56
2023/06/04 09:42:09;;;;;;;1.15;0.62;;;;;;;19.04;44.56;101405.81;1721324;81;21669;-55
2023/06/04 09:45:15;;;;;;;2.27;0.75;;;;;;;19.13;44.30;101410.12;1704146;83;21358;-57
2023/06/04 09:48:28;;;;;;;1.27;0.68;;;;;;;19.10;44.02;101422.50;1705182;81;21425;-57
2023/06/04 09:51:36;;;;;;;0.93;0.57;;;;;;;19.15;43.83;101413.00;1761698;81;21362;-57
2023/06/04 09:54:45;;;;;;;1.70;0.90;;;;;;;19.17;43.51;101413.66;1735574;81;21231;-57
2023/06/04 09:57:56;;;;;;;1.17;0.88;;;;;;;19.20;43.31;101410.47;1761692;81;21461;-58
2023/06/04 10:01:07;;;;;;;2.47;0.72;;;;;;;19.26;43.11;101408.27;1765798;79;21367;-57
2023/06/04 10:04:16;;;;;;;1.20;0.60;;;;;;;19.38;42.99;101411.88;1769668;79;21267;-57
2023/06/04 10:07:24;;;;;;;1.25;0.72;;;;;;;19.42;42.68;101402.05;1765481;80;21515;-57
2023/06/04 10:10:33;;;;;;;5.62;0.80;;;;;;;19.49;42.52;101401.55;1770207;80;21691;-57
2023/06/04 10:13:57;;;;;;;0.98;0.60;;;;;;;19.59;42.38;101401.45;1761286;79;21185;-55
2023/06/04 10:17:04;;;;;;;1.25;0.72;;;;;;;19.78;42.33;101393.70;1738525;82;21923;-56
2023/06/04 10:20:11;;;;;;;0.85;0.68;;;;;;;19.96;42.08;101403.69;1749682;79;21304;-57
2023/06/04 10:23:18;;;;;;;1.62;0.60;;;;;;;20.09;41.81;101393.11;1773008;79;21756;-57
2023/06/04 10:26:25;;;;;;;1.62;0.93;;;;;;;20.14;41.46;101388.63;1768208;80;21192;-57
2023/06/04 10:29:31;;;;;;;1.15;0.70;;;;;;;20.24;41.40;101390.98;1748121;79;21965;-57
2023/06/04 10:32:41;;;;;;;1.67;0.85;;;;;;;20.44;41.27;101384.34;1771922;79;21268;-56
2023/06/04 10:35:47;;;;;;;1.72;0.40;;;;;;;20.49;40.92;101388.73;1778812;79;21240;-57
2023/06/04 10:39:00;;;;;;;3.65;0.80;;;;;;;20.56;40.71;101384.55;1792800;79;21219;-59
2023/06/04 10:42:11;;;;;;;0.68;0.50;;;;;;;20.54;40.37;101387.55;1739532;82;21367;-58
2023/06/04 10:45:17;;;;;;;1.55;0.62;;;;;;;20.59;40.22;101378.55;1741211;81;21236;-58
2023/06/04 10:48:24;;;;;;;4.67;0.90;;;;;;;20.72;40.12;101373.79;1767712;81;21209;-58
2023/06/04 10:51:40;;;;;;;0.78;0.55;;;;;;;20.92;39.98;101379.84;1735363;82;21255;-56
2023/06/04 10:54:48;;;;;;;1.95;0.88;;;;;;;20.96;39.61;101377.86;1720871;83;21352;-55
2023/06/04 10:58:06;;;;;;;2.75;0.65;;;;;;;20.94;39.27;101378.56;1720689;83;21464;-56
2023/06/04 11:01:12;;;;;;;2.67;0.65;;;;;;;20.88;38.95;101368.84;1693148;80;21929;-57
2023/06/04 11:04:30;;;;;;;1.10;0.50;;;;;;;20.91;38.82;101360.91;1791024;79;21243;-57
2023/06/04 11:07:36;;;;;;;4.28;0.85;;;;;;;21.08;38.92;101352.94;1791084;80;21184;-58
2023/06/04 11:10:46;;;;;;;1.80;0.65;;;;;;;21.31;38.79;101351.33;1791784;80;21188;-55
2023/06/04 11:13:51;;;;;;;2.00;0.85;;;;;;;21.39;38.36;101348.84;1790999;80;21608;-58
2023/06/04 11:16:57;;;;;;;4.40;1.10;;;;;;;21.36;38.08;101357.09;1792224;79;21190;-57
2023/06/04 11:20:06;;;;;;;1.95;0.70;;;;;;;21.29;37.80;101363.78;1792192;80;21187;-57
2023/06/04 11:23:11;;;;;;;2.50;0.75;;;;;;;21.22;37.61;101348.48;1792168;80;21263;-59
2023/06/04 11:26:18;;;;;;;2.42;0.70;;;;;;;21.32;37.50;101360.55;1792772;78;21859;-56
2023/06/04 11:29:25;;;;;;;1.47;0.70;;;;;;;21.36;37.36;101350.12;1792469;80;21239;-55
2023/06/04 11:32:33;;;;;;;1.72;0.70;;;;;;;21.41;37.17;101347.53;1791771;78;21279;-56
2023/06/04 11:35:49;;;;;;;2.00;0.50;;;;;;;21.49;36.99;101345.87;1791381;80;21188;-56
2023/06/04 11:39:08;;;;;;;1.62;0.50;;;;;;;21.51;36.69;101349.83;1774315;79;21200;-58
2023/06/04 11:42:14;;;;;;;2.62;0.62;;;;;;;21.44;36.41;101344.82;1789463;79;21836;-57
2023/06/04 11:45:26;;;;;;;0.57;0.53;;;;;;;21.42;36.36;101350.62;1787487;79;21645;-57
2023/06/04 11:48:32;;;;;;;1.17;0.42;;;;;;;21.55;36.31;101332.44;1793024;79;21724;-57
2023/06/04 11:51:41;;;;;;;2.47;1.25;;;;;;;21.69;36.19;101344.37;1792392;79;21224;-57
2023/06/04 11:54:47;;;;;;;1.50;0.70;;;;;;;21.63;35.85;101349.42;1792966;79;21355;-57
2023/06/04 11:57:53;;;;;;;2.15;0.95;;;;;;;21.55;35.60;101351.94;1794157;78;21832;-57
2023/06/04 12:01:00;;;;;;;2.98;0.70;;;;;;;21.36;35.38;101344.55;1794701;79;21208;-58
2023/06/04 12:04:06;;;;;;;1.07;0.60;;;;;;;21.38;35.44;101340.15;1792526;79;21331;-55
2023/06/04 12:07:12;;;;;;;0.65;0.40;;;;;;;21.51;35.41;101343.73;1788076;79;21188;-55
2023/06/04 12:10:20;;;;;;;1.77;0.60;;;;;;;21.54;35.10;101336.84;1767928;80;21570;-57
2023/06/04 12:13:27;;;;;;;0.95;0.57;;;;;;;21.51;34.85;101342.86;1769780;79;21275;-56
2023/06/04 12:16:35;;;;;;;1.02;0.60;;;;;;;21.49;34.72;101347.27;1770721;80;21283;-58
2023/06/04 12:19:55;;;;;;;3.17;0.70;;;;;;;21.36;34.46;101336.20;1770895;80;21343;-57
2023/06/04 12:23:01;;;;;;;2.27;0.60;;;;;;;21.25;34.40;101348.04;1771189;80;21165;-58
2023/06/04 12:26:07;;;;;;;1.32;0.50;;;;;;;21.27;34.33;101338.93;1771343;80;22030;-57
2023/06/04 12:29:22;;;;;;;2.52;0.70;;;;;;;21.33;34.25;101343.61;1770930;80;21903;-56
2023/06/04 12:32:27;;;;;;;0.82;0.55;;;;;;;21.37;34.04;101346.81;1770047;80;21193;-58
2023/06/04 12:35:34;;;;;;;1.05;0.60;;;;;;;21.31;33.82;101339.34;1782028;80;21347;-57
2023/06/04 12:38:41;;;;;;;2.70;0.50;;;;;;;21.29;33.72;101342.36;1770407;81;21298;-56
2023/06/04 12:41:47;;;;;;;0.68;0.50;;;;;;;21.28;33.59;101348.16;1770224;80;21189;-56
2023/06/04 12:44:51;;;;;;;0.37;0.37;;;;;;;21.29;33.53;101338.17;1742786;80;21197;-56
2023/06/04 12:47:57;;;;;;;1.10;0.85;;;;;;;21.31;33.39;101329.04;1770844;80;22056;-57
2023/06/04 12:51:04;;;;;;;1.20;0.50;;;;;;;21.33;33.27;101335.77;1769740;79;21181;-55
2023/06/04 12:54:11;;;;;;;0.42;0.40;;;;;;;21.27;33.09;101338.93;1770644;80;21259;-56
2023/06/04 12:57:18;;;;;;;1.92;0.50;;;;;;;21.22;33.03;101333.70;1783160;79;21387;-57
2023/06/04 13:00:27;;;;;;;1.20;0.75;;;;;;;21.23;32.95;101338.21;1771374;80;21273;-56
2023/06/04 13:03:34;;;;;;;1.40;0.50;;;;;;;21.24;32.84;101341.30;1763522;79;21883;-58
2023/06/04 13:06:41;;;;;;;0.60;0.57;;;;;;;21.23;32.75;101339.04;1760664;80;21208;-57
2023/06/04 13:09:50;;;;;;;0.53;0.33;;;;;;;21.23;32.64;101332.08;1747876;81;21821;-56
2023/06/04 13:12:54;;;;;;;1.07;0.82;;;;;;;21.23;32.53;101333.47;1705538;83;21255;-58
2023/06/04 13:16:00;;;;;;;1.95;0.50;;;;;;;21.28;32.53;101334.23;1704782;83;21335;-58
2023/06/04 13:19:06;;;;;;;0.40;0.40;;;;;;;21.34;32.44;101320.27;1691058;85;21225;-56
2023/06/04 13:22:12;;;;;;;0.80;0.50;;;;;;;21.38;32.30;101322.03;1690816;85;21284;-55
2023/06/04 13:25:18;;;;;;;1.45;0.50;;;;;;;21.41;32.21;101314.09;1676072;85;21230;-56
2023/06/04 13:28:25;;;;;;;1.22;0.62;;;;;;;21.39;32.05;101330.17;1690403;85;21193;-57
2023/06/04 13:31:31;;;;;;;0.50;0.45;;;;;;;21.41;32.01;101327.16;1695434;84;21263;-56
2023/06/04 13:34:36;;;;;;;1.35;0.55;;;;;;;21.43;31.92;101323.62;1719473;83;21273;-56
2023/06/04 13:37:42;;;;;;;2.30;0.60;;;;;;;21.42;31.80;101328.33;1704420;83;21799;-56
2023/06/04 13:40:49;;;;;;;1.67;1.05;;;;;;;21.42;31.70;101322.75;1719758;82;21375;-57
2023/06/04 13:43:54;;;;;;;0.40;0.40;;;;;;;21.40;31.62;101322.15;1703039;83;21734;-56
2023/06/04 13:47:03;;;;;;;2.22;0.70;;;;;;;21.43;31.61;101320.30;1720314;83;21355;-56
2023/06/04 13:50:08;;;;;;;0.75;0.50;;;;;;;21.54;31.55;101318.73;1705161;84;21251;-59
2023/06/04 13:53:15;;;;;;;0.80;0.40;;;;;;;21.57;31.41;101323.31;1721616;83;21726;-59
2023/06/04 13:56:22;;;;;;;2.35;1.25;;;;;;;21.57;31.38;101317.74;1706220;84;21370;-55
2023/06/04 13:59:28;;;;;;;2.35;0.60;;;;;;;21.59;31.36;101312.81;1721866;83;21359;-57
2023/06/04 14:02:35;;;;;;;1.05;0.53;;;;;;;21.67;31.32;101320.90;1705720;83;21231;-56
2023/06/04 14:05:43;;;;;;;1.12;0.40;;;;;;;21.70;31.26;101315.40;1712500;82;22042;-58
2023/06/04 14:08:50;;;;;;;2.00;1.02;;;;;;;21.74;31.21;101313.33;1700134;82;21223;-56
2023/06/04 14:11:57;;;;;;;1.70;0.60;;;;;;;21.78;31.11;101307.66;1771717;80;21204;-58
2023/06/04 14:15:05;;;;;;;0.90;0.60;;;;;;;21.78;30.95;101300.69;1764974;80;21189;-57
2023/06/04 14:18:12;;;;;;;4.40;0.60;;;;;;;21.72;30.78;101311.85;1770294;80;21471;-57
2023/06/04 14:21:19;;;;;;;2.25;0.75;;;;;;;21.62;30.78;101305.39;1763878;80;22126;-57
2023/06/04 14:24:25;;;;;;;1.45;0.70;;;;;;;21.65;30.71;101299.89;1768798;80;21228;-57
2023/06/04 14:27:31;;;;;;;1.05;0.60;;;;;;;21.67;30.67;101302.78;1740570;82;21733;-57
2023/06/04 14:30:36;;;;;;;1.27;0.80;;;;;;;21.75;30.67;101308.11;1740396;82;21192;-57
2023/06/04 14:33:42;;;;;;;1.67;0.75;;;;;;;21.88;30.63;101308.55;1778958;79;21390;-58